sensor_id;sensor_type;location;lat;lon;timestamp;temperature;humidity
24148;DHT22;12309;51.450;-2.624;2023-08-21T00:01:29;16.00;99.90
24148;DHT22;12309;51.450;-2.624;2023-08-21T00:03:55;16.00;99.90
24148;DHT22;12309;51.450;-2.624;2023-08-21T00:06:20;16.10;99.90
24148;DHT22;12309;51.450;-2.624;2023-08-21T00:08:46;16.10;99.90
24148;DHT22;12309;51.450;-2.624;2023-08-21T00:11:11;16.10;99.90
24148;DHT22;12309;51.450;-2.624;2023-08-21T00:13:37;16.10;99.90
24148;DHT22;12309;51.450;-2.624;2023-08-21T00:16:03;16.20;99.90
24148;DHT22;12309;51.450;-2.624;2023-08-21T00:20:54;15.90;99.90
24148;DHT22;12309;51.450;-2.624;2023-08-21T00:23:20;15.90;99.90
24148;DHT22;12309;51.450;-2.624;2023-08-21T00:25:47;16.00;99.90
24148;DHT22;12309;51.450;-2.624;2023-08-21T00:28:13;16.00;99.90
24148;DHT22;12309;51.450;-2.624;2023-08-21T00:30:39;15.80;99.90
24148;DHT22;12309;51.450;-2.624;2023-08-21T00:33:05;15.90;99.90
24148;DHT22;12309;51.450;-2.624;2023-08-21T00:35:31;16.00;99.90
24148;DHT22;12309;51.450;-2.624;2023-08-21T00:37:56;16.00;99.90
24148;DHT22;12309;51.450;-2.624;2023-08-21T00:40:22;16.10;99.90
24148;DHT22;12309;51.450;-2.624;2023-08-21T00:42:48;16.10;99.90
24148;DHT22;12309;51.450;-2.624;2023-08-21T00:45:13;16.50;99.90
24148;DHT22;12309;51.450;-2.624;2023-08-21T00:47:39;16.10;99.90
24148;DHT22;12309;51.450;-2.624;2023-08-21T00:50:07;16.30;99.90
24148;DHT22;12309;51.450;-2.624;2023-08-21T00:52:34;16.20;99.90
24148;DHT22;12309;51.450;-2.624;2023-08-21T00:55:00;16.30;99.90
24148;DHT22;12309;51.450;-2.624;2023-08-21T00:57:26;16.30;99.90
24148;DHT22;12309;51.450;-2.624;2023-08-21T00:59:53;16.30;99.90
24148;DHT22;12309;51.450;-2.624;2023-08-21T01:02:18;16.40;99.90
24148;DHT22;12309;51.450;-2.624;2023-08-21T01:04:44;16.40;99.90
24148;DHT22;12309;51.450;-2.624;2023-08-21T01:07:10;16.40;99.90
24148;DHT22;12309;51.450;-2.624;2023-08-21T01:09:42;16.40;99.90
24148;DHT22;12309;51.450;-2.624;2023-08-21T01:12:33;16.30;99.90
24148;DHT22;12309;51.450;-2.624;2023-08-21T01:15:07;16.40;99.90
24148;DHT22;12309;51.450;-2.624;2023-08-21T01:17:34;16.40;99.90
24148;DHT22;12309;51.450;-2.624;2023-08-21T01:20:02;16.30;99.90
24148;DHT22;12309;51.450;-2.624;2023-08-21T01:22:38;16.30;99.90
24148;DHT22;12309;51.450;-2.624;2023-08-21T01:25:05;16.40;99.90
24148;DHT22;12309;51.450;-2.624;2023-08-21T01:27:31;16.40;99.90
24148;DHT22;12309;51.450;-2.624;2023-08-21T01:29:58;16.60;99.90
24148;DHT22;12309;51.450;-2.624;2023-08-21T01:35:07;16.60;99.90
24148;DHT22;12309;51.450;-2.624;2023-08-21T01:37:32;16.50;99.90
24148;DHT22;12309;51.450;-2.624;2023-08-21T01:39:59;16.40;99.90
24148;DHT22;12309;51.450;-2.624;2023-08-21T01:42:24;16.40;99.90
24148;DHT22;12309;51.450;-2.624;2023-08-21T01:44:50;16.50;99.90
24148;DHT22;12309;51.450;-2.624;2023-08-21T01:47:16;16.40;99.90
24148;DHT22;12309;51.450;-2.624;2023-08-21T01:49:41;16.30;99.90
24148;DHT22;12309;51.450;-2.624;2023-08-21T01:52:07;16.40;99.90
24148;DHT22;12309;51.450;-2.624;2023-08-21T01:54:32;16.40;99.90
24148;DHT22;12309;51.450;-2.624;2023-08-21T01:56:58;16.30;99.90
24148;DHT22;12309;51.450;-2.624;2023-08-21T01:59:24;16.40;99.90
24148;DHT22;12309;51.450;-2.624;2023-08-21T02:01:50;16.40;99.90
24148;DHT22;12309;51.450;-2.624;2023-08-21T02:04:16;16.50;99.90
24148;DHT22;12309;51.450;-2.624;2023-08-21T02:06:42;19.00;99.90
24148;DHT22;12309;51.450;-2.624;2023-08-21T02:09:09;16.40;99.90
24148;DHT22;12309;51.450;-2.624;2023-08-21T02:11:35;16.20;99.90
24148;DHT22;12309;51.450;-2.624;2023-08-21T02:14:01;16.20;99.90
24148;DHT22;12309;51.450;-2.624;2023-08-21T02:16:27;16.20;99.90
24148;DHT22;12309;51.450;-2.624;2023-08-21T02:21:18;16.00;99.90
24148;DHT22;12309;51.450;-2.624;2023-08-21T02:23:44;16.10;99.90
24148;DHT22;12309;51.450;-2.624;2023-08-21T02:26:09;16.00;99.90
24148;DHT22;12309;51.450;-2.624;2023-08-21T02:28:35;16.00;99.90
24148;DHT22;12309;51.450;-2.624;2023-08-21T02:31:00;16.00;99.90
24148;DHT22;12309;51.450;-2.624;2023-08-21T02:35:52;15.80;99.90
24148;DHT22;12309;51.450;-2.624;2023-08-21T02:38:17;15.80;99.90
24148;DHT22;12309;51.450;-2.624;2023-08-21T02:40:43;15.60;99.90
24148;DHT22;12309;51.450;-2.624;2023-08-21T02:43:10;15.70;99.90
24148;DHT22;12309;51.450;-2.624;2023-08-21T02:45:35;15.80;99.90
24148;DHT22;12309;51.450;-2.624;2023-08-21T02:50:27;15.80;99.90
24148;DHT22;12309;51.450;-2.624;2023-08-21T02:52:52;15.80;99.90
24148;DHT22;12309;51.450;-2.624;2023-08-21T02:55:18;15.80;99.90
24148;DHT22;12309;51.450;-2.624;2023-08-21T02:57:44;15.90;99.90
24148;DHT22;12309;51.450;-2.624;2023-08-21T03:00:10;15.80;99.90
24148;DHT22;12309;51.450;-2.624;2023-08-21T03:02:37;15.70;99.90
24148;DHT22;12309;51.450;-2.624;2023-08-21T03:05:03;15.60;99.90
24148;DHT22;12309;51.450;-2.624;2023-08-21T03:07:29;15.80;99.90
24148;DHT22;12309;51.450;-2.624;2023-08-21T03:12:21;15.40;99.90
24148;DHT22;12309;51.450;-2.624;2023-08-21T03:14:47;15.50;99.90
24148;DHT22;12309;51.450;-2.624;2023-08-21T03:17:12;15.50;99.90
24148;DHT22;12309;51.450;-2.624;2023-08-21T03:19:38;15.40;99.90
24148;DHT22;12309;51.450;-2.624;2023-08-21T03:22:04;15.40;99.90
24148;DHT22;12309;51.450;-2.624;2023-08-21T03:24:30;15.40;99.90
24148;DHT22;12309;51.450;-2.624;2023-08-21T03:26:55;15.50;99.90
24148;DHT22;12309;51.450;-2.624;2023-08-21T03:29:21;15.50;99.90
24148;DHT22;12309;51.450;-2.624;2023-08-21T03:31:49;15.60;99.90
24148;DHT22;12309;51.450;-2.624;2023-08-21T03:34:15;15.50;99.90
24148;DHT22;12309;51.450;-2.624;2023-08-21T03:36:40;15.40;99.90
24148;DHT22;12309;51.450;-2.624;2023-08-21T03:39:06;15.40;99.90
24148;DHT22;12309;51.450;-2.624;2023-08-21T03:43:58;15.40;99.90
24148;DHT22;12309;51.450;-2.624;2023-08-21T03:46:23;15.30;99.90
24148;DHT22;12309;51.450;-2.624;2023-08-21T03:48:49;15.40;99.90
24148;DHT22;12309;51.450;-2.624;2023-08-21T03:51:16;15.40;99.90
24148;DHT22;12309;51.450;-2.624;2023-08-21T03:53:41;15.30;99.90
24148;DHT22;12309;51.450;-2.624;2023-08-21T03:56:07;15.40;99.90
24148;DHT22;12309;51.450;-2.624;2023-08-21T03:58:33;15.40;99.90
24148;DHT22;12309;51.450;-2.624;2023-08-21T04:00:59;15.20;99.90
24148;DHT22;12309;51.450;-2.624;2023-08-21T04:03:24;15.40;99.90
24148;DHT22;12309;51.450;-2.624;2023-08-21T04:05:53;15.30;99.90
24148;DHT22;12309;51.450;-2.624;2023-08-21T04:08:18;15.30;99.90
24148;DHT22;12309;51.450;-2.624;2023-08-21T04:10:44;15.10;99.90
24148;DHT22;12309;51.450;-2.624;2023-08-21T04:13:10;15.20;99.90
24148;DHT22;12309;51.450;-2.624;2023-08-21T04:15:35;15.30;99.90
24148;DHT22;12309;51.450;-2.624;2023-08-21T04:18:01;15.20;99.90
24148;DHT22;12309;51.450;-2.624;2023-08-21T04:20:26;15.20;99.90
24148;DHT22;12309;51.450;-2.624;2023-08-21T04:22:52;15.20;99.90
24148;DHT22;12309;51.450;-2.624;2023-08-21T04:25:18;15.00;99.90
24148;DHT22;12309;51.450;-2.624;2023-08-21T04:27:43;15.10;99.90
24148;DHT22;12309;51.450;-2.624;2023-08-21T04:30:10;15.10;99.90
24148;DHT22;12309;51.450;-2.624;2023-08-21T04:32:36;15.10;99.90
24148;DHT22;12309;51.450;-2.624;2023-08-21T04:35:01;15.00;99.90
24148;DHT22;12309;51.450;-2.624;2023-08-21T04:37:27;15.00;99.90
24148;DHT22;12309;51.450;-2.624;2023-08-21T04:39:53;15.00;99.90
24148;DHT22;12309;51.450;-2.624;2023-08-21T04:42:19;15.00;99.90
24148;DHT22;12309;51.450;-2.624;2023-08-21T04:44:45;14.90;99.90
24148;DHT22;12309;51.450;-2.624;2023-08-21T04:47:25;14.90;99.90
24148;DHT22;12309;51.450;-2.624;2023-08-21T04:49:54;14.90;99.90
24148;DHT22;12309;51.450;-2.624;2023-08-21T04:52:20;14.90;99.90
24148;DHT22;12309;51.450;-2.624;2023-08-21T04:54:47;14.80;99.90
24148;DHT22;12309;51.450;-2.624;2023-08-21T04:57:13;14.80;99.90
24148;DHT22;12309;51.450;-2.624;2023-08-21T04:59:39;14.80;99.90
24148;DHT22;12309;51.450;-2.624;2023-08-21T05:04:31;14.80;99.90
24148;DHT22;12309;51.450;-2.624;2023-08-21T05:06:57;14.80;99.90
24148;DHT22;12309;51.450;-2.624;2023-08-21T05:09:22;14.70;99.90
24148;DHT22;12309;51.450;-2.624;2023-08-21T05:11:48;14.80;99.90
24148;DHT22;12309;51.450;-2.624;2023-08-21T05:14:13;14.80;99.90
24148;DHT22;12309;51.450;-2.624;2023-08-21T05:16:39;13.50;99.90
24148;DHT22;12309;51.450;-2.624;2023-08-21T05:19:05;14.70;99.90
24148;DHT22;12309;51.450;-2.624;2023-08-21T05:21:30;14.70;99.90
24148;DHT22;12309;51.450;-2.624;2023-08-21T05:23:56;14.70;99.90
24148;DHT22;12309;51.450;-2.624;2023-08-21T05:26:21;14.60;99.90
24148;DHT22;12309;51.450;-2.624;2023-08-21T05:28:47;14.60;99.90
24148;DHT22;12309;51.450;-2.624;2023-08-21T05:31:12;14.50;99.90
24148;DHT22;12309;51.450;-2.624;2023-08-21T05:33:38;14.50;99.90
24148;DHT22;12309;51.450;-2.624;2023-08-21T05:36:05;14.80;99.90
24148;DHT22;12309;51.450;-2.624;2023-08-21T05:38:31;14.60;99.90
24148;DHT22;12309;51.450;-2.624;2023-08-21T05:40:57;14.90;99.90
24148;DHT22;12309;51.450;-2.624;2023-08-21T05:43:24;15.00;99.90
24148;DHT22;12309;51.450;-2.624;2023-08-21T05:45:49;15.10;99.90
24148;DHT22;12309;51.450;-2.624;2023-08-21T05:48:15;15.20;99.90
24148;DHT22;12309;51.450;-2.624;2023-08-21T05:50:42;15.10;99.90
24148;DHT22;12309;51.450;-2.624;2023-08-21T05:53:08;15.20;99.90
24148;DHT22;12309;51.450;-2.624;2023-08-21T05:55:36;15.20;99.90
24148;DHT22;12309;51.450;-2.624;2023-08-21T05:58:02;15.00;99.90
24148;DHT22;12309;51.450;-2.624;2023-08-21T06:00:28;15.10;99.90
24148;DHT22;12309;51.450;-2.624;2023-08-21T06:02:53;15.00;99.90
24148;DHT22;12309;51.450;-2.624;2023-08-21T06:05:19;15.10;99.90
24148;DHT22;12309;51.450;-2.624;2023-08-21T06:07:45;15.10;99.90
24148;DHT22;12309;51.450;-2.624;2023-08-21T06:10:10;15.20;99.90
24148;DHT22;12309;51.450;-2.624;2023-08-21T06:12:41;15.50;99.90
24148;DHT22;12309;51.450;-2.624;2023-08-21T06:15:07;15.50;99.90
24148;DHT22;12309;51.450;-2.624;2023-08-21T06:17:36;15.80;99.90
24148;DHT22;12309;51.450;-2.624;2023-08-21T06:20:03;15.70;99.90
24148;DHT22;12309;51.450;-2.624;2023-08-21T06:22:31;15.90;99.90
24148;DHT22;12309;51.450;-2.624;2023-08-21T06:24:57;15.90;99.90
24148;DHT22;12309;51.450;-2.624;2023-08-21T06:27:23;16.00;99.90
24148;DHT22;12309;51.450;-2.624;2023-08-21T06:29:48;16.00;99.90
24148;DHT22;12309;51.450;-2.624;2023-08-21T06:32:14;16.20;99.90
24148;DHT22;12309;51.450;-2.624;2023-08-21T06:34:40;16.40;99.90
24148;DHT22;12309;51.450;-2.624;2023-08-21T06:37:05;16.40;99.90
24148;DHT22;12309;51.450;-2.624;2023-08-21T06:39:31;16.40;99.90
24148;DHT22;12309;51.450;-2.624;2023-08-21T06:41:56;16.60;99.90
24148;DHT22;12309;51.450;-2.624;2023-08-21T06:44:22;16.50;99.90
24148;DHT22;12309;51.450;-2.624;2023-08-21T06:46:48;16.60;99.90
24148;DHT22;12309;51.450;-2.624;2023-08-21T06:49:14;16.70;99.90
24148;DHT22;12309;51.450;-2.624;2023-08-21T06:51:39;16.80;99.90
24148;DHT22;12309;51.450;-2.624;2023-08-21T06:54:05;15.10;99.90
24148;DHT22;12309;51.450;-2.624;2023-08-21T06:56:31;16.90;99.90
24148;DHT22;12309;51.450;-2.624;2023-08-21T06:58:57;17.00;99.90
24148;DHT22;12309;51.450;-2.624;2023-08-21T07:01:22;17.00;99.90
24148;DHT22;12309;51.450;-2.624;2023-08-21T07:06:14;17.20;99.90
24148;DHT22;12309;51.450;-2.624;2023-08-21T07:08:39;17.20;99.90
24148;DHT22;12309;51.450;-2.624;2023-08-21T07:11:06;17.30;99.90
24148;DHT22;12309;51.450;-2.624;2023-08-21T07:13:36;17.40;99.90
24148;DHT22;12309;51.450;-2.624;2023-08-21T07:16:01;17.50;99.90
24148;DHT22;12309;51.450;-2.624;2023-08-21T07:20:54;17.70;99.90
24148;DHT22;12309;51.450;-2.624;2023-08-21T07:23:20;17.80;99.90
24148;DHT22;12309;51.450;-2.624;2023-08-21T07:25:45;17.90;99.90
24148;DHT22;12309;51.450;-2.624;2023-08-21T07:28:11;18.00;99.90
24148;DHT22;12309;51.450;-2.624;2023-08-21T07:30:37;17.90;99.90
24148;DHT22;12309;51.450;-2.624;2023-08-21T07:33:04;17.90;99.90
24148;DHT22;12309;51.450;-2.624;2023-08-21T07:35:30;18.00;99.90
24148;DHT22;12309;51.450;-2.624;2023-08-21T07:37:56;18.10;99.90
24148;DHT22;12309;51.450;-2.624;2023-08-21T07:40:21;18.30;99.90
24148;DHT22;12309;51.450;-2.624;2023-08-21T07:42:47;18.30;99.90
24148;DHT22;12309;51.450;-2.624;2023-08-21T07:45:13;18.50;99.90
24148;DHT22;12309;51.450;-2.624;2023-08-21T07:47:38;18.50;99.90
24148;DHT22;12309;51.450;-2.624;2023-08-21T07:50:05;18.60;99.90
24148;DHT22;12309;51.450;-2.624;2023-08-21T07:52:32;18.60;99.90
24148;DHT22;12309;51.450;-2.624;2023-08-21T07:54:58;18.50;99.90
24148;DHT22;12309;51.450;-2.624;2023-08-21T07:57:26;19.20;99.90
24148;DHT22;12309;51.450;-2.624;2023-08-21T07:59:52;18.80;99.90
24148;DHT22;12309;51.450;-2.624;2023-08-21T08:02:17;18.80;99.90
24148;DHT22;12309;51.450;-2.624;2023-08-21T08:04:44;19.00;99.90
24148;DHT22;12309;51.450;-2.624;2023-08-21T08:07:09;18.90;99.90
24148;DHT22;12309;51.450;-2.624;2023-08-21T08:09:35;19.10;99.90
24148;DHT22;12309;51.450;-2.624;2023-08-21T08:12:01;19.00;99.90
24148;DHT22;12309;51.450;-2.624;2023-08-21T08:14:27;19.20;99.90
24148;DHT22;12309;51.450;-2.624;2023-08-21T08:16:52;19.40;99.90
24148;DHT22;12309;51.450;-2.624;2023-08-21T08:19:18;19.30;99.90
24148;DHT22;12309;51.450;-2.624;2023-08-21T08:21:44;19.30;99.90
24148;DHT22;12309;51.450;-2.624;2023-08-21T08:26:35;19.70;99.90
24148;DHT22;12309;51.450;-2.624;2023-08-21T08:29:01;18.30;99.90
24148;DHT22;12309;51.450;-2.624;2023-08-21T08:31:26;19.90;99.90
24148;DHT22;12309;51.450;-2.624;2023-08-21T08:33:54;19.80;99.90
24148;DHT22;12309;51.450;-2.624;2023-08-21T08:36:19;19.80;99.90
24148;DHT22;12309;51.450;-2.624;2023-08-21T08:38:45;19.90;99.90
24148;DHT22;12309;51.450;-2.624;2023-08-21T08:44:02;20.00;99.90
24148;DHT22;12309;51.450;-2.624;2023-08-21T08:46:29;19.90;99.90
24148;DHT22;12309;51.450;-2.624;2023-08-21T08:48:56;19.80;99.90
24148;DHT22;12309;51.450;-2.624;2023-08-21T08:51:24;19.70;99.90
24148;DHT22;12309;51.450;-2.624;2023-08-21T08:53:50;19.70;99.90
24148;DHT22;12309;51.450;-2.624;2023-08-21T08:56:16;19.80;99.90
24148;DHT22;12309;51.450;-2.624;2023-08-21T08:58:42;19.70;99.90
24148;DHT22;12309;51.450;-2.624;2023-08-21T09:01:08;21.60;99.90
24148;DHT22;12309;51.450;-2.624;2023-08-21T09:03:36;19.70;99.90
24148;DHT22;12309;51.450;-2.624;2023-08-21T09:06:03;19.70;99.90
24148;DHT22;12309;51.450;-2.624;2023-08-21T09:08:29;19.50;99.90
24148;DHT22;12309;51.450;-2.624;2023-08-21T09:10:55;19.80;99.90
24148;DHT22;12309;51.450;-2.624;2023-08-21T09:13:21;19.70;99.90
24148;DHT22;12309;51.450;-2.624;2023-08-21T09:15:54;19.80;99.90
24148;DHT22;12309;51.450;-2.624;2023-08-21T09:18:23;20.10;99.90
24148;DHT22;12309;51.450;-2.624;2023-08-21T09:20:48;20.00;99.90
24148;DHT22;12309;51.450;-2.624;2023-08-21T09:23:16;20.10;99.90
24148;DHT22;12309;51.450;-2.624;2023-08-21T09:25:46;19.00;99.90
24148;DHT22;12309;51.450;-2.624;2023-08-21T09:28:13;19.70;99.90
24148;DHT22;12309;51.450;-2.624;2023-08-21T09:30:53;20.70;99.90
24148;DHT22;12309;51.450;-2.624;2023-08-21T09:33:20;19.80;99.90
24148;DHT22;12309;51.450;-2.624;2023-08-21T09:35:47;19.90;99.90
24148;DHT22;12309;51.450;-2.624;2023-08-21T09:38:13;19.90;99.90
24148;DHT22;12309;51.450;-2.624;2023-08-21T09:40:49;20.00;99.90
24148;DHT22;12309;51.450;-2.624;2023-08-21T09:43:18;20.20;99.90
24148;DHT22;12309;51.450;-2.624;2023-08-21T09:45:52;20.40;99.90
24148;DHT22;12309;51.450;-2.624;2023-08-21T09:48:22;20.30;99.90
24148;DHT22;12309;51.450;-2.624;2023-08-21T09:50:50;20.00;99.90
24148;DHT22;12309;51.450;-2.624;2023-08-21T09:53:16;20.00;99.90
24148;DHT22;12309;51.450;-2.624;2023-08-21T09:55:42;20.10;99.90
24148;DHT22;12309;51.450;-2.624;2023-08-21T09:58:08;20.10;99.90
24148;DHT22;12309;51.450;-2.624;2023-08-21T10:00:36;20.00;99.90
24148;DHT22;12309;51.450;-2.624;2023-08-21T10:03:07;20.20;99.90
24148;DHT22;12309;51.450;-2.624;2023-08-21T10:05:36;20.20;99.90
24148;DHT22;12309;51.450;-2.624;2023-08-21T10:08:04;20.40;99.90
24148;DHT22;12309;51.450;-2.624;2023-08-21T10:10:35;20.80;99.90
24148;DHT22;12309;51.450;-2.624;2023-08-21T10:13:02;20.60;99.90
24148;DHT22;12309;51.450;-2.624;2023-08-21T10:15:29;20.90;99.90
24148;DHT22;12309;51.450;-2.624;2023-08-21T10:17:56;21.20;99.90
24148;DHT22;12309;51.450;-2.624;2023-08-21T10:20:25;20.90;99.90
24148;DHT22;12309;51.450;-2.624;2023-08-21T10:22:55;20.90;99.90
24148;DHT22;12309;51.450;-2.624;2023-08-21T10:25:26;21.10;99.90
24148;DHT22;12309;51.450;-2.624;2023-08-21T10:27:59;20.90;99.90
24148;DHT22;12309;51.450;-2.624;2023-08-21T10:30:28;21.00;99.90
24148;DHT22;12309;51.450;-2.624;2023-08-21T10:32:56;20.90;99.90
24148;DHT22;12309;51.450;-2.624;2023-08-21T10:35:23;20.60;99.90
24148;DHT22;12309;51.450;-2.624;2023-08-21T10:40:33;20.50;99.90
24148;DHT22;12309;51.450;-2.624;2023-08-21T10:43:00;20.50;99.90
24148;DHT22;12309;51.450;-2.624;2023-08-21T10:45:25;20.50;99.90
24148;DHT22;12309;51.450;-2.624;2023-08-21T10:47:51;20.50;99.90
24148;DHT22;12309;51.450;-2.624;2023-08-21T10:50:17;20.60;99.90
24148;DHT22;12309;51.450;-2.624;2023-08-21T10:52:43;20.60;99.90
24148;DHT22;12309;51.450;-2.624;2023-08-21T10:55:14;20.50;99.90
24148;DHT22;12309;51.450;-2.624;2023-08-21T10:57:40;20.80;99.90
24148;DHT22;12309;51.450;-2.624;2023-08-21T11:00:11;20.70;99.90
24148;DHT22;12309;51.450;-2.624;2023-08-21T11:02:39;20.60;99.90
24148;DHT22;12309;51.450;-2.624;2023-08-21T11:05:05;20.60;99.90
24148;DHT22;12309;51.450;-2.624;2023-08-21T11:10:10;20.80;99.90
24148;DHT22;12309;51.450;-2.624;2023-08-21T11:12:36;20.60;99.90
24148;DHT22;12309;51.450;-2.624;2023-08-21T11:15:03;20.80;99.90
24148;DHT22;12309;51.450;-2.624;2023-08-21T11:17:29;20.80;99.90
24148;DHT22;12309;51.450;-2.624;2023-08-21T11:19:55;20.90;99.90
24148;DHT22;12309;51.450;-2.624;2023-08-21T11:22:28;21.10;99.90
24148;DHT22;12309;51.450;-2.624;2023-08-21T11:24:55;20.20;99.90
24148;DHT22;12309;51.450;-2.624;2023-08-21T11:27:21;20.80;99.90
24148;DHT22;12309;51.450;-2.624;2023-08-21T11:29:51;21.40;99.90
24148;DHT22;12309;51.450;-2.624;2023-08-21T11:32:22;21.40;99.90
24148;DHT22;12309;51.450;-2.624;2023-08-21T11:34:48;21.70;1.00
24148;DHT22;12309;51.450;-2.624;2023-08-21T11:37:16;21.90;9.40
24148;DHT22;12309;51.450;-2.624;2023-08-21T11:39:48;22.20;1.00
24148;DHT22;12309;51.450;-2.624;2023-08-21T11:42:14;22.30;1.00
24148;DHT22;12309;51.450;-2.624;2023-08-21T11:44:48;22.30;1.00
24148;DHT22;12309;51.450;-2.624;2023-08-21T11:47:17;22.10;1.00
24148;DHT22;12309;51.450;-2.624;2023-08-21T11:49:44;22.40;1.00
24148;DHT22;12309;51.450;-2.624;2023-08-21T11:52:11;22.20;1.00
24148;DHT22;12309;51.450;-2.624;2023-08-21T11:54:38;22.40;1.00
24148;DHT22;12309;51.450;-2.624;2023-08-21T11:57:12;22.70;1.00
24148;DHT22;12309;51.450;-2.624;2023-08-21T11:59:38;22.90;1.00
24148;DHT22;12309;51.450;-2.624;2023-08-21T12:02:30;22.90;34.10
24148;DHT22;12309;51.450;-2.624;2023-08-21T12:05:05;23.00;1.00
24148;DHT22;12309;51.450;-2.624;2023-08-21T12:07:32;22.80;1.00
24148;DHT22;12309;51.450;-2.624;2023-08-21T12:09:57;22.80;1.00
24148;DHT22;12309;51.450;-2.624;2023-08-21T12:12:24;22.80;1.00
24148;DHT22;12309;51.450;-2.624;2023-08-21T12:14:49;22.50;1.00
24148;DHT22;12309;51.450;-2.624;2023-08-21T12:17:15;22.50;1.00
24148;DHT22;12309;51.450;-2.624;2023-08-21T12:19:40;23.00;1.00
24148;DHT22;12309;51.450;-2.624;2023-08-21T12:22:07;23.60;99.90
24148;DHT22;12309;51.450;-2.624;2023-08-21T12:24:33;24.50;1.00
24148;DHT22;12309;51.450;-2.624;2023-08-21T12:26:59;25.70;99.90
24148;DHT22;12309;51.450;-2.624;2023-08-21T12:29:25;26.30;1.00
24148;DHT22;12309;51.450;-2.624;2023-08-21T12:31:50;26.10;99.90
24148;DHT22;12309;51.450;-2.624;2023-08-21T12:34:16;26.10;99.90
24148;DHT22;12309;51.450;-2.624;2023-08-21T12:36:42;25.40;99.90
24148;DHT22;12309;51.450;-2.624;2023-08-21T12:39:07;25.40;99.90
24148;DHT22;12309;51.450;-2.624;2023-08-21T12:41:34;25.40;99.90
24148;DHT22;12309;51.450;-2.624;2023-08-21T12:44:00;25.80;1.00
24148;DHT22;12309;51.450;-2.624;2023-08-21T12:46:26;25.10;1.00
24148;DHT22;12309;51.450;-2.624;2023-08-21T12:48:53;25.10;1.00
24148;DHT22;12309;51.450;-2.624;2023-08-21T12:51:19;25.00;1.00
24148;DHT22;12309;51.450;-2.624;2023-08-21T12:53:45;24.60;1.00
24148;DHT22;12309;51.450;-2.624;2023-08-21T12:56:10;24.40;99.90
24148;DHT22;12309;51.450;-2.624;2023-08-21T12:58:36;24.30;99.90
24148;DHT22;12309;51.450;-2.624;2023-08-21T13:01:01;24.30;99.90
24148;DHT22;12309;51.450;-2.624;2023-08-21T13:03:29;24.00;99.90
24148;DHT22;12309;51.450;-2.624;2023-08-21T13:08:21;24.10;1.00
24148;DHT22;12309;51.450;-2.624;2023-08-21T13:10:46;23.90;1.00
24148;DHT22;12309;51.450;-2.624;2023-08-21T13:13:12;23.80;1.00
24148;DHT22;12309;51.450;-2.624;2023-08-21T13:15:38;23.60;1.00
24148;DHT22;12309;51.450;-2.624;2023-08-21T13:18:04;23.70;1.00
24148;DHT22;12309;51.450;-2.624;2023-08-21T13:20:29;23.50;99.90
24148;DHT22;12309;51.450;-2.624;2023-08-21T13:22:55;23.30;99.90
24148;DHT22;12309;51.450;-2.624;2023-08-21T13:25:23;23.50;99.90
24148;DHT22;12309;51.450;-2.624;2023-08-21T13:27:50;23.50;99.90
24148;DHT22;12309;51.450;-2.624;2023-08-21T13:30:16;24.80;1.00
24148;DHT22;12309;51.450;-2.624;2023-08-21T13:32:43;25.60;99.90
24148;DHT22;12309;51.450;-2.624;2023-08-21T13:35:09;26.30;1.00
24148;DHT22;12309;51.450;-2.624;2023-08-21T13:37:35;25.90;1.00
24148;DHT22;12309;51.450;-2.624;2023-08-21T13:40:01;25.50;1.00
24148;DHT22;12309;51.450;-2.624;2023-08-21T13:42:35;26.70;1.00
24148;DHT22;12309;51.450;-2.624;2023-08-21T13:45:03;26.80;1.00
24148;DHT22;12309;51.450;-2.624;2023-08-21T13:47:29;27.80;99.90
24148;DHT22;12309;51.450;-2.624;2023-08-21T13:49:54;28.80;1.00
24148;DHT22;12309;51.450;-2.624;2023-08-21T13:52:20;28.00;1.00
24148;DHT22;12309;51.450;-2.624;2023-08-21T13:54:46;27.20;1.00
24148;DHT22;12309;51.450;-2.624;2023-08-21T13:57:12;26.50;1.00
24148;DHT22;12309;51.450;-2.624;2023-08-21T13:59:37;27.00;1.00
24148;DHT22;12309;51.450;-2.624;2023-08-21T14:02:03;26.70;1.00
24148;DHT22;12309;51.450;-2.624;2023-08-21T14:04:32;26.10;1.00
24148;DHT22;12309;51.450;-2.624;2023-08-21T14:06:57;24.80;1.00
24148;DHT22;12309;51.450;-2.624;2023-08-21T14:09:23;24.70;1.00
24148;DHT22;12309;51.450;-2.624;2023-08-21T14:11:48;24.60;1.00
24148;DHT22;12309;51.450;-2.624;2023-08-21T14:14:14;23.90;1.00
24148;DHT22;12309;51.450;-2.624;2023-08-21T14:16:40;23.90;1.00
24148;DHT22;12309;51.450;-2.624;2023-08-21T14:19:05;24.00;1.00
24148;DHT22;12309;51.450;-2.624;2023-08-21T14:21:31;24.20;1.00
24148;DHT22;12309;51.450;-2.624;2023-08-21T14:23:56;24.20;1.00
24148;DHT22;12309;51.450;-2.624;2023-08-21T14:26:22;25.10;1.00
24148;DHT22;12309;51.450;-2.624;2023-08-21T14:31:16;25.00;1.00
24148;DHT22;12309;51.450;-2.624;2023-08-21T14:33:42;25.50;1.00
24148;DHT22;12309;51.450;-2.624;2023-08-21T14:36:07;26.40;1.00
24148;DHT22;12309;51.450;-2.624;2023-08-21T14:38:33;26.90;99.90
24148;DHT22;12309;51.450;-2.624;2023-08-21T14:40:58;27.10;1.00
24148;DHT22;12309;51.450;-2.624;2023-08-21T14:43:24;26.80;1.00
24148;DHT22;12309;51.450;-2.624;2023-08-21T14:45:50;27.10;1.00
24148;DHT22;12309;51.450;-2.624;2023-08-21T14:48:17;26.50;1.00
24148;DHT22;12309;51.450;-2.624;2023-08-21T14:50:43;25.90;1.00
24148;DHT22;12309;51.450;-2.624;2023-08-21T14:53:08;25.40;1.00
24148;DHT22;12309;51.450;-2.624;2023-08-21T14:55:34;25.00;1.00
24148;DHT22;12309;51.450;-2.624;2023-08-21T14:58:00;24.20;99.90
24148;DHT22;12309;51.450;-2.624;2023-08-21T15:00:31;24.00;1.00
24148;DHT22;12309;51.450;-2.624;2023-08-21T15:02:57;23.90;1.00
24148;DHT22;12309;51.450;-2.624;2023-08-21T15:05:22;23.90;1.00
24148;DHT22;12309;51.450;-2.624;2023-08-21T15:07:48;24.30;1.00
24148;DHT22;12309;51.450;-2.624;2023-08-21T15:10:14;25.50;99.90
24148;DHT22;12309;51.450;-2.624;2023-08-21T15:12:39;25.60;99.90
24148;DHT22;12309;51.450;-2.624;2023-08-21T15:15:05;26.10;1.00
24148;DHT22;12309;51.450;-2.624;2023-08-21T15:17:31;25.90;99.90
24148;DHT22;12309;51.450;-2.624;2023-08-21T15:19:56;27.10;99.90
24148;DHT22;12309;51.450;-2.624;2023-08-21T15:22:22;27.60;1.00
24148;DHT22;12309;51.450;-2.624;2023-08-21T15:24:48;28.00;1.00
24148;DHT22;12309;51.450;-2.624;2023-08-21T15:27:13;27.00;1.00
24148;DHT22;12309;51.450;-2.624;2023-08-21T15:29:39;27.00;1.00
24148;DHT22;12309;51.450;-2.624;2023-08-21T15:32:05;27.80;1.00
24148;DHT22;12309;51.450;-2.624;2023-08-21T15:34:31;26.70;1.00
24148;DHT22;12309;51.450;-2.624;2023-08-21T15:36:57;26.60;1.00
24148;DHT22;12309;51.450;-2.624;2023-08-21T15:39:26;26.20;1.00
24148;DHT22;12309;51.450;-2.624;2023-08-21T15:41:52;24.90;1.00
24148;DHT22;12309;51.450;-2.624;2023-08-21T15:44:17;25.00;1.00
24148;DHT22;12309;51.450;-2.624;2023-08-21T15:46:43;24.50;1.00
24148;DHT22;12309;51.450;-2.624;2023-08-21T15:49:09;22.50;1.00
24148;DHT22;12309;51.450;-2.624;2023-08-21T15:51:35;24.30;1.00
24148;DHT22;12309;51.450;-2.624;2023-08-21T15:54:01;24.10;56.40
24148;DHT22;12309;51.450;-2.624;2023-08-21T15:56:26;23.90;1.00